Time;durP1;ratioP1;P1;durP2;ratioP2;P2;SDS_P1;SDS_P2;PMS_P1;PMS_P2;Temp;Humidity;BMP_temperature;BMP_pressure;BME280_temperature;BME280_humidity;BME280_pressure;Samples;Min_cycle;Max_cycle;Signal;HPM_P1;HPM_P2
2023/03/26 00:00:08;;;;;;;23.50;14.60;;;;;;;;;;5090809;28;20487;-71
2023/03/26 00:02:38;;;;;;;21.75;14.43;;;;;;;;;;5092034;28;20525;-71
2023/03/26 00:05:06;;;;;;;26.20;16.33;;;;;;;;;;5093135;28;20489;-71
2023/03/26 00:07:31;;;;;;;24.90;16.42;;;;;;;;;;5092977;28;20070;-71
2023/03/26 00:09:57;;;;;;;20.90;14.45;;;;;;;;;;5091394;28;20504;-71
2023/03/26 00:12:24;;;;;;;24.67;15.65;;;;;;;;;;5092940;28;20146;-72
2023/03/26 00:14:51;;;;;;;21.73;14.63;;;;;;;;;;5092776;28;20086;-72
2023/03/26 00:17:17;;;;;;;21.98;14.25;;;;;;;;;;5092917;28;20191;-72
2023/03/26 00:19:42;;;;;;;21.95;13.82;;;;;;;;;;5092264;28;20028;-71
2023/03/26 00:22:12;;;;;;;24.88;15.38;;;;;;;;;;5092802;28;20020;-71
2023/03/26 00:24:39;;;;;;;24.60;15.63;;;;;;;;;;5091359;28;20040;-71
2023/03/26 00:27:05;;;;;;;20.23;14.20;;;;;;;;;;5092666;28;20028;-72
2023/03/26 00:29:32;;;;;;;22.67;14.73;;;;;;;;;;5090967;28;20083;-72
2023/03/26 00:31:58;;;;;;;20.85;14.57;;;;;;;;;;5091219;28;20035;-71
2023/03/26 00:34:25;;;;;;;23.02;14.98;;;;;;;;;;5091364;28;20497;-72
2023/03/26 00:36:53;;;;;;;21.50;13.38;;;;;;;;;;5092412;28;20042;-72
2023/03/26 00:39:22;;;;;;;23.83;14.40;;;;;;;;;;5091909;28;20032;-72
2023/03/26 00:41:52;;;;;;;21.10;13.55;;;;;;;;;;5092368;28;20465;-72
2023/03/26 00:44:18;;;;;;;19.08;12.98;;;;;;;;;;5092551;28;20031;-72
2023/03/26 00:46:44;;;;;;;20.83;13.98;;;;;;;;;;5074144;28;20529;-72
2023/03/26 00:49:13;;;;;;;19.08;12.73;;;;;;;;;;5090608;28;20096;-72
2023/03/26 00:51:40;;;;;;;18.23;13.23;;;;;;;;;;5091929;28;20402;-72
2023/03/26 00:54:07;;;;;;;17.30;12.07;;;;;;;;;;5090707;28;20101;-72
2023/03/26 00:56:34;;;;;;;18.65;12.80;;;;;;;;;;5090856;28;20114;-72
2023/03/26 00:59:00;;;;;;;20.48;13.23;;;;;;;;;;5090423;28;20926;-72
2023/03/26 01:01:29;;;;;;;18.30;12.80;;;;;;;;;;5090652;28;20024;-72
2023/03/26 01:04:00;;;;;;;19.55;12.32;;;;;;;;;;5090597;28;20060;-72
2023/03/26 01:06:31;;;;;;;16.42;12.02;;;;;;;;;;5092417;28;20044;-72
2023/03/26 01:09:03;;;;;;;17.48;12.85;;;;;;;;;;5091492;28;20036;-72
2023/03/26 01:11:31;;;;;;;17.88;12.48;;;;;;;;;;5092461;28;20038;-72
2023/03/26 01:14:22;;;;;;;17.40;11.85;;;;;;;;;;5091751;28;20024;-71
2023/03/26 01:16:53;;;;;;;18.15;12.13;;;;;;;;;;5087335;28;20539;-72
2023/03/26 01:19:50;;;;;;;16.85;11.70;;;;;;;;;;5087846;28;20061;-72
2023/03/26 01:22:19;;;;;;;14.95;10.10;;;;;;;;;;5082656;28;20310;-71
2023/03/26 01:24:51;;;;;;;17.48;12.10;;;;;;;;;;5090794;28;20032;-71
2023/03/26 01:27:47;;;;;;;19.25;12.02;;;;;;;;;;5091301;28;20134;-72
2023/03/26 01:30:32;;;;;;;19.70;11.75;;;;;;;;;;5089363;28;20032;-72
2023/03/26 01:33:16;;;;;;;16.83;10.88;;;;;;;;;;5089683;28;20170;-72
2023/03/26 01:36:03;;;;;;;16.98;11.25;;;;;;;;;;5088557;28;20047;-72
2023/03/26 01:38:39;;;;;;;14.55;10.50;;;;;;;;;;5091601;28;20036;-71
2023/03/26 01:41:33;;;;;;;15.48;9.98;;;;;;;;;;5091199;28;20165;-71
2023/03/26 01:44:08;;;;;;;12.52;7.90;;;;;;;;;;5087635;28;20032;-71
2023/03/26 01:46:35;;;;;;;11.07;8.18;;;;;;;;;;5071217;28;20033;-71
2023/03/26 01:49:05;;;;;;;8.93;6.93;;;;;;;;;;5071961;28;20358;-71
2023/03/26 01:51:34;;;;;;;9.35;6.85;;;;;;;;;;5085182;28;20059;-71
2023/03/26 01:54:03;;;;;;;9.77;6.55;;;;;;;;;;5088921;28;20020;-71
2023/03/26 01:56:50;;;;;;;8.60;5.03;;;;;;;;;;5085475;28;20031;-71
2023/03/26 01:59:28;;;;;;;7.00;5.18;;;;;;;;;;5083585;28;20375;-71
2023/03/26 02:02:32;;;;;;;8.70;4.32;;;;;;;;;;5091212;28;20036;-71
2023/03/26 02:05:14;;;;;;;4.65;3.55;;;;;;;;;;5088902;28;20064;-71
2023/03/26 02:08:21;;;;;;;6.95;3.55;;;;;;;;;;5092359;28;20048;-71
2023/03/26 02:11:00;;;;;;;5.28;3.05;;;;;;;;;;5075500;28;20028;-71
2023/03/26 02:13:26;;;;;;;7.10;5.22;;;;;;;;;;5071021;28;20089;-71
2023/03/26 02:16:04;;;;;;;8.95;5.38;;;;;;;;;;5074847;28;20047;-71
2023/03/26 02:18:37;;;;;;;8.00;5.50;;;;;;;;;;5074455;28;20099;-71
2023/03/26 02:21:18;;;;;;;7.22;4.72;;;;;;;;;;5093901;28;20040;-72
2023/03/26 02:23:47;;;;;;;6.75;4.82;;;;;;;;;;5093485;28;20420;-72
2023/03/26 02:26:16;;;;;;;7.20;4.97;;;;;;;;;;5083990;28;20157;-71
2023/03/26 02:28:53;;;;;;;8.18;5.00;;;;;;;;;;5093988;28;20043;-72
2023/03/26 02:31:20;;;;;;;8.27;5.53;;;;;;;;;;5074339;28;20028;-72
2023/03/26 02:33:48;;;;;;;9.18;5.40;;;;;;;;;;5075674;28;20028;-71
2023/03/26 02:36:16;;;;;;;6.80;4.78;;;;;;;;;;5075271;28;20119;-72
2023/03/26 02:38:43;;;;;;;6.53;4.32;;;;;;;;;;5073496;28;20024;-70
2023/03/26 02:41:10;;;;;;;6.55;4.68;;;;;;;;;;5073112;28;20486;-71
2023/03/26 02:43:49;;;;;;;5.55;4.10;;;;;;;;;;5072975;28;20398;-71
2023/03/26 02:46:19;;;;;;;6.68;3.63;;;;;;;;;;5072879;28;20039;-72
2023/03/26 02:48:59;;;;;;;8.88;3.53;;;;;;;;;;5076307;28;20035;-71
2023/03/26 02:51:26;;;;;;;4.95;3.08;;;;;;;;;;5076181;28;20024;-72
2023/03/26 02:54:05;;;;;;;7.18;4.47;;;;;;;;;;5092864;28;20030;-71
2023/03/26 02:56:47;;;;;;;8.02;4.47;;;;;;;;;;5092859;28;20046;-72
2023/03/26 02:59:32;;;;;;;5.90;4.05;;;;;;;;;;5068808;28;20045;-72
2023/03/26 03:02:23;;;;;;;7.03;4.88;;;;;;;;;;5073661;28;20070;-72
2023/03/26 03:04:51;;;;;;;8.07;5.10;;;;;;;;;;5077412;28;20032;-72
2023/03/26 03:07:16;;;;;;;7.50;4.68;;;;;;;;;;5092696;28;20190;-72
2023/03/26 03:09:42;;;;;;;7.72;5.55;;;;;;;;;;5091969;28;20024;-72
2023/03/26 03:12:28;;;;;;;8.25;5.40;;;;;;;;;;5087981;28;20050;-72
2023/03/26 03:14:54;;;;;;;6.45;4.63;;;;;;;;;;5088233;28;20033;-72
2023/03/26 03:17:20;;;;;;;10.43;6.80;;;;;;;;;;5072092;28;20028;-72
2023/03/26 03:19:46;;;;;;;12.60;7.32;;;;;;;;;;5078285;28;20036;-74
2023/03/26 03:22:13;;;;;;;12.48;8.02;;;;;;;;;;5072489;28;20103;-72
2023/03/26 03:24:42;;;;;;;13.82;8.85;;;;;;;;;;5076143;28;20032;-73
2023/03/26 03:27:08;;;;;;;13.93;9.02;;;;;;;;;;5093541;28;20169;-73
2023/03/26 03:29:41;;;;;;;12.77;9.75;;;;;;;;;;5090043;28;20472;-72
2023/03/26 03:32:46;;;;;;;14.23;9.75;;;;;;;;;;5073264;28;20502;-73
2023/03/26 03:35:15;;;;;;;15.75;10.55;;;;;;;;;;5079123;28;20033;-72
2023/03/26 03:37:43;;;;;;;15.93;10.23;;;;;;;;;;5092132;28;20024;-71
2023/03/26 03:40:10;;;;;;;14.57;9.85;;;;;;;;;;5091659;28;20016;-71
2023/03/26 03:42:37;;;;;;;15.68;11.15;;;;;;;;;;5091949;28;20032;-72
2023/03/26 03:45:05;;;;;;;16.75;11.73;;;;;;;;;;5091930;28;20630;-71
2023/03/26 03:47:56;;;;;;;14.00;9.82;;;;;;;;;;5091629;28;20080;-71
2023/03/26 03:50:30;;;;;;;13.38;10.05;;;;;;;;;;5084735;28;20032;-71
2023/03/26 03:53:17;;;;;;;19.15;11.25;;;;;;;;;;5071617;28;20051;-71
2023/03/26 03:55:51;;;;;;;17.55;10.43;;;;;;;;;;5079688;28;20111;-72
2023/03/26 03:58:22;;;;;;;15.30;10.10;;;;;;;;;;5084416;28;20048;-72
2023/03/26 04:00:51;;;;;;;15.93;10.57;;;;;;;;;;5091614;28;20039;-72
2023/03/26 04:03:37;;;;;;;13.88;9.77;;;;;;;;;;5089196;28;20038;-72
2023/03/26 04:06:09;;;;;;;14.05;9.95;;;;;;;;;;5106857;28;20028;-72
2023/03/26 04:08:37;;;;;;;16.80;10.15;;;;;;;;;;5091829;28;20545;-72
2023/03/26 04:11:05;;;;;;;15.43;10.80;;;;;;;;;;5091817;28;20469;-72
2023/03/26 04:14:00;;;;;;;13.73;9.75;;;;;;;;;;5072419;28;20037;-72
2023/03/26 04:16:51;;;;;;;14.85;10.45;;;;;;;;;;5086045;28;20113;-72
2023/03/26 04:19:17;;;;;;;15.48;10.35;;;;;;;;;;5058215;28;20111;-72
2023/03/26 04:21:43;;;;;;;14.20;10.65;;;;;;;;;;5084622;28;20112;-70
2023/03/26 04:24:09;;;;;;;20.95;11.45;;;;;;;;;;5083274;28;20028;-71
2023/03/26 04:27:15;;;;;;;16.42;10.68;;;;;;;;;;5050139;28;20076;-72
2023/03/26 04:29:44;;;;;;;15.02;10.10;;;;;;;;;;5079945;28;20040;-72
2023/03/26 04:32:28;;;;;;;17.73;10.90;;;;;;;;;;5091486;28;20016;-71
2023/03/26 04:34:59;;;;;;;16.58;10.57;;;;;;;;;;5092673;28;20039;-71
2023/03/26 04:37:33;;;;;;;14.90;10.15;;;;;;;;;;5092739;28;20032;-70
2023/03/26 04:40:18;;;;;;;13.27;9.18;;;;;;;;;;5091157;28;20028;-70
2023/03/26 04:43:01;;;;;;;14.48;9.30;;;;;;;;;;5090235;28;20040;-70
2023/03/26 04:45:46;;;;;;;14.43;9.93;;;;;;;;;;5090405;28;20094;-71
2023/03/26 04:48:13;;;;;;;13.93;9.80;;;;;;;;;;5084978;28;20090;-71
2023/03/26 04:50:41;;;;;;;14.70;9.05;;;;;;;;;;5088293;28;20020;-71
2023/03/26 04:53:12;;;;;;;14.90;9.18;;;;;;;;;;5092302;28;20027;-71
2023/03/26 04:56:02;;;;;;;11.75;7.97;;;;;;;;;;5092695;28;20059;-71
2023/03/26 04:59:00;;;;;;;13.15;8.77;;;;;;;;;;5068536;28;20040;-71
2023/03/26 05:01:29;;;;;;;12.13;9.05;;;;;;;;;;5070376;28;20040;-72
2023/03/26 05:03:57;;;;;;;14.02;9.32;;;;;;;;;;5088766;28;20028;-71
2023/03/26 05:06:27;;;;;;;11.82;8.60;;;;;;;;;;5090734;28;20397;-71
2023/03/26 05:08:53;;;;;;;11.40;8.05;;;;;;;;;;5090622;28;20186;-71
2023/03/26 05:11:38;;;;;;;10.60;6.85;;;;;;;;;;5091410;28;20097;-72
2023/03/26 05:14:05;;;;;;;11.27;6.68;;;;;;;;;;5087648;28;20089;-71
2023/03/26 05:16:32;;;;;;;10.75;6.90;;;;;;;;;;5085054;28;20028;-71
2023/03/26 05:19:05;;;;;;;10.75;6.75;;;;;;;;;;5087692;28;20032;-72
2023/03/26 05:21:33;;;;;;;11.65;7.10;;;;;;;;;;5090751;28;20538;-71
2023/03/26 05:24:00;;;;;;;9.25;7.00;;;;;;;;;;5090740;28;20066;-72
2023/03/26 05:26:28;;;;;;;12.07;6.38;;;;;;;;;;5090503;28;20027;-72
2023/03/26 05:28:55;;;;;;;9.93;7.25;;;;;;;;;;5090529;28;20028;-71
2023/03/26 05:31:33;;;;;;;7.63;5.97;;;;;;;;;;5070408;28;20028;-72
2023/03/26 05:34:00;;;;;;;8.40;6.15;;;;;;;;;;5089164;28;20095;-72
2023/03/26 05:36:27;;;;;;;12.07;7.45;;;;;;;;;;5090521;28;20020;-72
2023/03/26 05:39:08;;;;;;;7.35;5.72;;;;;;;;;;5090167;28;20497;-71
2023/03/26 05:41:57;;;;;;;9.32;6.38;;;;;;;;;;5092879;28;20036;-72
2023/03/26 05:44:31;;;;;;;8.25;5.75;;;;;;;;;;5094746;28;20043;-72
2023/03/26 05:47:01;;;;;;;10.95;6.57;;;;;;;;;;5094202;28;20065;-71
2023/03/26 05:49:27;;;;;;;8.57;6.55;;;;;;;;;;5094326;28;20035;-72
2023/03/26 05:51:53;;;;;;;7.55;5.65;;;;;;;;;;5094382;28;20020;-72
2023/03/26 05:54:42;;;;;;;10.60;6.57;;;;;;;;;;5094364;28;20032;-72
2023/03/26 05:57:31;;;;;;;8.23;6.43;;;;;;;;;;5095445;28;20044;-72
2023/03/26 06:00:17;;;;;;;10.80;6.18;;;;;;;;;;5095046;28;20553;-72
2023/03/26 06:02:45;;;;;;;8.27;5.43;;;;;;;;;;5095440;28;20052;-72
2023/03/26 06:05:36;;;;;;;9.15;6.68;;;;;;;;;;5081197;28;20043;-72
2023/03/26 06:08:35;;;;;;;7.13;5.65;;;;;;;;;;5094265;28;20039;-72
2023/03/26 06:11:06;;;;;;;7.97;6.28;;;;;;;;;;5095866;28;20194;-72
2023/03/26 06:13:35;;;;;;;8.77;5.85;;;;;;;;;;5093176;28;20088;-72
2023/03/26 06:16:00;;;;;;;7.75;5.95;;;;;;;;;;5091562;28;20097;-72
2023/03/26 06:18:32;;;;;;;7.60;5.57;;;;;;;;;;5110404;28;20088;-71
2023/03/26 06:21:18;;;;;;;12.18;7.03;;;;;;;;;;5094288;28;20490;-71
2023/03/26 06:23:50;;;;;;;7.15;5.57;;;;;;;;;;5093204;28;20040;-70
2023/03/26 06:26:34;;;;;;;9.90;6.30;;;;;;;;;;5094691;28;20047;-71
2023/03/26 06:29:35;;;;;;;10.40;6.15;;;;;;;;;;5092678;28;20060;-71
2023/03/26 06:32:11;;;;;;;7.95;6.07;;;;;;;;;;5093451;28;20032;-72
2023/03/26 06:34:48;;;;;;;10.77;6.38;;;;;;;;;;5092796;28;20028;-71
2023/03/26 06:37:14;;;;;;;8.27;6.15;;;;;;;;;;5072548;28;20342;-71
2023/03/26 06:39:41;;;;;;;8.90;6.05;;;;;;;;;;5101942;28;20028;-71
2023/03/26 06:42:13;;;;;;;8.45;5.72;;;;;;;;;;5097237;28;20032;-72
2023/03/26 06:44:52;;;;;;;6.30;4.93;;;;;;;;;;5092962;28;20047;-71
2023/03/26 06:47:38;;;;;;;8.65;5.18;;;;;;;;;;5093998;28;20501;-72
2023/03/26 06:50:23;;;;;;;8.60;4.60;;;;;;;;;;5083183;28;20086;-71
2023/03/26 06:53:11;;;;;;;7.97;4.30;;;;;;;;;;5093456;28;20508;-70
2023/03/26 06:56:03;;;;;;;8.38;4.43;;;;;;;;;;5077528;28;20059;-71
2023/03/26 06:58:49;;;;;;;5.80;4.25;;;;;;;;;;5089474;28;20294;-73
2023/03/26 07:01:30;;;;;;;8.00;4.80;;;;;;;;;;5093873;28;20047;-73
2023/03/26 07:04:14;;;;;;;7.00;3.92;;;;;;;;;;5091970;28;20087;-73
2023/03/26 07:07:17;;;;;;;5.50;4.15;;;;;;;;;;5091395;28;20040;-72
2023/03/26 07:10:01;;;;;;;9.02;4.63;;;;;;;;;;5093618;28;20050;-72
2023/03/26 07:12:45;;;;;;;11.13;4.57;;;;;;;;;;5093569;28;20118;-72
2023/03/26 07:15:20;;;;;;;7.30;4.30;;;;;;;;;;5093645;28;20024;-72
2023/03/26 07:17:51;;;;;;;5.13;4.05;;;;;;;;;;5087896;28;20040;-72
2023/03/26 07:20:24;;;;;;;6.15;3.65;;;;;;;;;;5092328;28;20441;-71
2023/03/26 07:22:51;;;;;;;4.75;3.20;;;;;;;;;;5092588;28;20196;-72
2023/03/26 07:25:37;;;;;;;6.57;3.60;;;;;;;;;;5087919;28;20042;-71
2023/03/26 07:28:31;;;;;;;5.35;3.33;;;;;;;;;;5091989;28;20031;-70
2023/03/26 07:31:35;;;;;;;5.68;3.15;;;;;;;;;;5082671;28;20043;-70
2023/03/26 07:34:49;;;;;;;5.50;3.92;;;;;;;;;;5082200;28;20435;-71
2023/03/26 07:37:55;;;;;;;5.45;3.60;;;;;;;;;;5092955;28;20078;-72
2023/03/26 07:41:01;;;;;;;6.03;3.85;;;;;;;;;;5087775;28;20166;-71
2023/03/26 07:43:40;;;;;;;5.03;3.40;;;;;;;;;;5093128;28;20051;-71
2023/03/26 07:46:46;;;;;;;4.68;2.92;;;;;;;;;;5060548;28;20044;-71
2023/03/26 07:49:32;;;;;;;4.07;3.00;;;;;;;;;;5066909;28;20044;-72
2023/03/26 07:52:29;;;;;;;5.25;2.90;;;;;;;;;;5069345;28;20048;-71
2023/03/26 07:54:55;;;;;;;4.15;3.05;;;;;;;;;;5088186;28;20047;-71
2023/03/26 07:58:15;;;;;;;5.07;3.25;;;;;;;;;;5092095;28;20031;-71
2023/03/26 08:01:35;;;;;;;4.72;2.92;;;;;;;;;;5090187;28;20040;-72
2023/03/26 08:04:44;;;;;;;4.32;3.03;;;;;;;;;;5083023;28;20032;-71
2023/03/26 08:07:52;;;;;;;6.40;3.22;;;;;;;;;;5075974;28;20410;-72
2023/03/26 08:10:28;;;;;;;4.13;2.63;;;;;;;;;;5102645;28;20027;-71
2023/03/26 08:13:39;;;;;;;3.42;2.95;;;;;;;;;;5090165;28;20039;-73
2023/03/26 08:16:15;;;;;;;6.10;2.88;;;;;;;;;;5086561;28;20029;-71
2023/03/26 08:19:00;;;;;;;6.25;3.15;;;;;;;;;;5087010;28;20421;-72
2023/03/26 08:21:30;;;;;;;8.23;2.70;;;;;;;;;;5091976;28;20126;-73
2023/03/26 08:24:19;;;;;;;5.43;2.85;;;;;;;;;;5090806;28;20461;-71
2023/03/26 08:26:51;;;;;;;4.18;2.78;;;;;;;;;;5092249;28;20035;-73
2023/03/26 08:30:00;;;;;;;4.78;3.25;;;;;;;;;;5089765;28;20080;-71
2023/03/26 08:32:27;;;;;;;7.57;3.50;;;;;;;;;;5085638;28;20111;-71
2023/03/26 08:34:53;;;;;;;8.25;2.90;;;;;;;;;;5082771;28;20032;-70
2023/03/26 08:37:19;;;;;;;5.05;2.80;;;;;;;;;;5091407;28;20023;-71
2023/03/26 08:39:45;;;;;;;4.45;3.30;;;;;;;;;;5090856;28;20064;-72
2023/03/26 08:42:33;;;;;;;7.38;3.30;;;;;;;;;;5091353;28;20069;-72
2023/03/26 08:45:01;;;;;;;3.65;2.80;;;;;;;;;;5082590;28;20032;-72
2023/03/26 08:48:05;;;;;;;6.30;2.60;;;;;;;;;;5091134;28;20445;-71
2023/03/26 08:50:46;;;;;;;6.03;2.60;;;;;;;;;;5090201;28;20040;-72
2023/03/26 08:53:46;;;;;;;3.72;2.60;;;;;;;;;;5083509;28;20040;-71
2023/03/26 08:56:21;;;;;;;5.40;3.33;;;;;;;;;;5089616;28;20088;-71
2023/03/26 08:59:20;;;;;;;5.85;2.80;;;;;;;;;;5089551;28;20092;-72
2023/03/26 09:02:20;;;;;;;5.78;3.03;;;;;;;;;;5086816;28;20048;-71
2023/03/26 09:05:04;;;;;;;5.32;3.10;;;;;;;;;;5083798;28;20443;-71
2023/03/26 09:07:49;;;;;;;5.50;3.17;;;;;;;;;;5090765;28;20047;-72
2023/03/26 09:10:58;;;;;;;5.05;3.30;;;;;;;;;;5079007;28;20031;-70
2023/03/26 09:13:36;;;;;;;10.57;6.13;;;;;;;;;;5071032;28;20040;-70
2023/03/26 09:16:19;;;;;;;6.20;3.40;;;;;;;;;;5086446;28;20032;-71
2023/03/26 09:19:10;;;;;;;4.60;3.15;;;;;;;;;;5091066;28;20056;-71
2023/03/26 09:22:08;;;;;;;4.22;2.88;;;;;;;;;;5091533;28;20074;-70
2023/03/26 09:25:01;;;;;;;3.83;2.40;;;;;;;;;;5086670;28;20483;-71
2023/03/26 09:27:39;;;;;;;3.15;2.05;;;;;;;;;;5069421;28;20090;-70
2023/03/26 09:30:35;;;;;;;3.67;2.10;;;;;;;;;;5078257;28;20036;-71
2023/03/26 09:33:37;;;;;;;5.15;2.95;;;;;;;;;;5082932;28;20059;-70
2023/03/26 09:36:19;;;;;;;4.80;2.17;;;;;;;;;;5088800;28;20610;-70
2023/03/26 09:38:52;;;;;;;6.18;2.60;;;;;;;;;;5089518;28;20032;-71
2023/03/26 09:41:42;;;;;;;8.50;3.15;;;;;;;;;;5091176;28;20024;-70
2023/03/26 09:44:17;;;;;;;3.28;2.30;;;;;;;;;;5085993;28;20056;-70
2023/03/26 09:46:45;;;;;;;3.65;2.30;;;;;;;;;;5091430;28;20035;-70
2023/03/26 09:49:29;;;;;;;3.63;2.22;;;;;;;;;;5082798;28;20058;-71
2023/03/26 09:52:21;;;;;;;5.25;2.40;;;;;;;;;;5093926;28;20055;-71
2023/03/26 09:54:49;;;;;;;4.60;2.45;;;;;;;;;;5090466;28;20494;-71
2023/03/26 09:57:41;;;;;;;4.45;2.08;;;;;;;;;;5091400;28;20020;-71
2023/03/26 10:00:16;;;;;;;4.45;2.50;;;;;;;;;;5091310;28;20063;-71
2023/03/26 10:03:11;;;;;;;6.03;3.35;;;;;;;;;;5091764;28;20036;-71
2023/03/26 10:05:58;;;;;;;9.10;3.45;;;;;;;;;;5077800;28;20047;-71
2023/03/26 10:08:38;;;;;;;6.03;3.75;;;;;;;;;;5085772;28;20024;-71
2023/03/26 10:11:21;;;;;;;4.28;2.50;;;;;;;;;;5091580;28;20035;-71
2023/03/26 10:14:17;;;;;;;4.88;1.90;;;;;;;;;;5090030;28;20027;-70
2023/03/26 10:17:16;;;;;;;3.75;2.00;;;;;;;;;;5089543;28;20555;-70
2023/03/26 10:19:44;;;;;;;4.28;2.15;;;;;;;;;;5091117;28;20092;-70
2023/03/26 10:22:13;;;;;;;4.75;3.20;;;;;;;;;;5091673;28;20452;-71
2023/03/26 10:24:57;;;;;;;6.28;2.08;;;;;;;;;;5090935;28;20063;-71
2023/03/26 10:27:31;;;;;;;4.35;1.83;;;;;;;;;;5091197;28;20501;-70
2023/03/26 10:30:24;;;;;;;5.75;2.45;;;;;;;;;;5094908;28;20044;-71
2023/03/26 10:33:17;;;;;;;4.63;2.45;;;;;;;;;;5094489;28;20112;-70
2023/03/26 10:36:17;;;;;;;6.63;2.47;;;;;;;;;;5094936;28;20054;-71
2023/03/26 10:39:01;;;;;;;3.15;2.10;;;;;;;;;;5094495;28;20040;-71
2023/03/26 10:41:40;;;;;;;6.10;1.85;;;;;;;;;;5094613;28;20073;-71
2023/03/26 10:44:42;;;;;;;4.13;2.20;;;;;;;;;;5095738;28;20106;-71
2023/03/26 10:47:33;;;;;;;3.70;2.25;;;;;;;;;;5089091;28;20047;-70
2023/03/26 10:50:15;;;;;;;4.20;2.22;;;;;;;;;;5093051;28;20059;-71
2023/03/26 10:52:56;;;;;;;4.80;2.10;;;;;;;;;;5094237;28;20434;-71
2023/03/26 10:55:45;;;;;;;3.30;1.85;;;;;;;;;;5092821;28;20039;-71
2023/03/26 10:58:22;;;;;;;2.70;1.90;;;;;;;;;;5094030;28;20111;-71
2023/03/26 11:01:03;;;;;;;3.25;2.20;;;;;;;;;;5094045;28;20032;-72
2023/03/26 11:03:50;;;;;;;6.05;2.60;;;;;;;;;;5094019;28;20044;-71
2023/03/26 11:06:37;;;;;;;5.13;2.92;;;;;;;;;;5094100;28;20039;-71
2023/03/26 11:09:21;;;;;;;4.70;2.17;;;;;;;;;;5092295;28;20032;-71
2023/03/26 11:12:08;;;;;;;5.68;2.33;;;;;;;;;;5095130;28;20036;-71
2023/03/26 11:14:46;;;;;;;4.38;1.90;;;;;;;;;;5094513;28;20050;-71
2023/03/26 11:17:34;;;;;;;4.55;3.08;;;;;;;;;;5094055;28;20047;-71
2023/03/26 11:20:17;;;;;;;3.75;2.47;;;;;;;;;;5093605;28;20078;-70
2023/03/26 11:23:12;;;;;;;7.13;2.60;;;;;;;;;;5093599;28;20100;-71
2023/03/26 11:26:08;;;;;;;4.45;1.88;;;;;;;;;;5085879;28;20048;-70
2023/03/26 11:28:57;;;;;;;22.40;15.25;;;;;;;;;;5092923;28;20036;-70
2023/03/26 11:31:54;;;;;;;13.00;6.13;;;;;;;;;;5093975;28;20115;-71
2023/03/26 11:34:26;;;;;;;14.82;7.20;;;;;;;;;;5093991;28;20062;-72
2023/03/26 11:36:56;;;;;;;6.53;2.60;;;;;;;;;;5093766;28;20452;-70
2023/03/26 11:39:28;;;;;;;4.38;2.65;;;;;;;;;;5093449;28;20051;-71
2023/03/26 11:42:06;;;;;;;4.97;2.42;;;;;;;;;;5092053;28;20035;-72
2023/03/26 11:44:54;;;;;;;4.38;2.13;;;;;;;;;;5093538;28;20131;-71
2023/03/26 11:47:25;;;;;;;5.72;2.30;;;;;;;;;;5093297;28;20039;-70
2023/03/26 11:49:55;;;;;;;5.50;2.63;;;;;;;;;;5093068;28;20032;-70
2023/03/26 11:52:21;;;;;;;15.27;8.63;;;;;;;;;;5091869;28;20039;-71
2023/03/26 11:54:49;;;;;;;5.93;3.10;;;;;;;;;;5093167;28;20428;-71
2023/03/26 11:57:36;;;;;;;9.07;3.33;;;;;;;;;;5092946;28;20071;-72
2023/03/26 12:00:26;;;;;;;3.88;2.40;;;;;;;;;;5091594;28;20036;-71
2023/03/26 12:02:49;;;;;;;3.88;2.33;;;;;;;;;;5092832;28;20056;-71
2023/03/26 12:05:30;;;;;;;5.47;2.35;;;;;;;;;;5092953;28;20023;-71
2023/03/26 12:07:58;;;;;;;2.60;1.80;;;;;;;;;;5093094;28;20067;-72
2023/03/26 12:10:36;;;;;;;11.18;7.30;;;;;;;;;;5091614;28;20031;-72
2023/03/26 12:13:29;;;;;;;4.70;2.85;;;;;;;;;;5091768;28;20039;-70
2023/03/26 12:16:03;;;;;;;4.75;2.55;;;;;;;;;;5082167;28;20040;-70
2023/03/26 12:18:29;;;;;;;4.38;2.40;;;;;;;;;;5092638;28;20492;-71
2023/03/26 12:21:16;;;;;;;5.97;2.13;;;;;;;;;;5092461;28;20052;-72
2023/03/26 12:23:54;;;;;;;6.13;3.45;;;;;;;;;;5093095;28;20067;-71
2023/03/26 12:26:38;;;;;;;24.05;16.35;;;;;;;;;;5092852;28;20048;-72
2023/03/26 12:29:16;;;;;;;6.95;2.67;;;;;;;;;;5092611;28;20032;-71
2023/03/26 12:32:12;;;;;;;5.38;2.55;;;;;;;;;;5092500;28;20040;-71
2023/03/26 12:34:38;;;;;;;4.85;2.42;;;;;;;;;;5086808;28;20035;-71
2023/03/26 12:37:07;;;;;;;3.75;2.00;;;;;;;;;;5088702;28;20024;-71
2023/03/26 12:39:41;;;;;;;3.35;1.90;;;;;;;;;;5087338;28;20104;-71
2023/03/26 12:42:30;;;;;;;4.38;2.00;;;;;;;;;;5106016;28;20028;-71
2023/03/26 12:44:57;;;;;;;3.47;2.13;;;;;;;;;;5086157;28;20390;-71
2023/03/26 12:47:29;;;;;;;2.78;1.92;;;;;;;;;;5084445;28;20023;-71
2023/03/26 12:49:55;;;;;;;10.13;7.80;;;;;;;;;;5073783;28;20037;-71
2023/03/26 12:53:08;;;;;;;11.70;9.32;;;;;;;;;;5070962;28;20428;-71
2023/03/26 12:55:41;;;;;;;6.03;2.80;;;;;;;;;;5069530;28;20055;-71
2023/03/26 12:58:46;;;;;;;3.42;2.40;;;;;;;;;;5071510;28;20046;-72
2023/03/26 13:01:37;;;;;;;3.92;2.30;;;;;;;;;;5084264;28;20024;-72
2023/03/26 13:04:14;;;;;;;3.72;2.30;;;;;;;;;;5086711;28;20031;-71
2023/03/26 13:06:44;;;;;;;5.15;3.97;;;;;;;;;;5086342;28;20509;-71
2023/03/26 13:09:31;;;;;;;4.75;3.03;;;;;;;;;;5091490;28;20027;-71
2023/03/26 13:12:18;;;;;;;3.75;2.10;;;;;;;;;;5091801;28;20035;-71
2023/03/26 13:15:05;;;;;;;2.78;1.42;;;;;;;;;;5091229;28;20035;-72
2023/03/26 13:17:42;;;;;;;7.25;4.97;;;;;;;;;;5086295;28;20032;-72
2023/03/26 13:20:29;;;;;;;2.78;2.20;;;;;;;;;;5079921;28;20036;-72
2023/03/26 13:23:03;;;;;;;2.78;1.60;;;;;;;;;;5089765;28;20043;-71
2023/03/26 13:25:33;;;;;;;2.70;1.60;;;;;;;;;;5091890;28;20140;-71
2023/03/26 13:28:05;;;;;;;6.80;2.58;;;;;;;;;;5091478;28;20039;-71
2023/03/26 13:31:00;;;;;;;3.30;1.98;;;;;;;;;;5091574;28;20082;-72
2023/03/26 13:33:49;;;;;;;3.58;1.63;;;;;;;;;;5085247;28;20064;-71
2023/03/26 13:36:30;;;;;;;2.53;1.88;;;;;;;;;;5090363;28;20453;-72
2023/03/26 13:38:56;;;;;;;3.53;2.10;;;;;;;;;;5090413;28;20089;-71
2023/03/26 13:41:33;;;;;;;3.22;2.30;;;;;;;;;;5082700;28;20043;-71
2023/03/26 13:44:13;;;;;;;3.03;1.75;;;;;;;;;;5091009;28;20489;-71
2023/03/26 13:46:44;;;;;;;3.80;2.00;;;;;;;;;;5075938;28;20538;-70
2023/03/26 13:49:24;;;;;;;3.20;1.85;;;;;;;;;;5088119;28;20113;-70
2023/03/26 13:52:00;;;;;;;3.45;2.22;;;;;;;;;;5086167;28;20017;-70
2023/03/26 13:54:37;;;;;;;3.55;1.80;;;;;;;;;;5084975;28;20110;-71
2023/03/26 13:57:25;;;;;;;3.33;1.70;;;;;;;;;;5088170;28;20031;-71
2023/03/26 13:59:56;;;;;;;2.60;1.80;;;;;;;;;;5088253;28;20032;-71
2023/03/26 14:02:36;;;;;;;6.38;4.00;;;;;;;;;;5088098;28;20074;-71
2023/03/26 14:05:07;;;;;;;4.20;2.00;;;;;;;;;;5090320;28;20370;-71
2023/03/26 14:07:53;;;;;;;2.75;1.90;;;;;;;;;;5093800;28;20123;-71
2023/03/26 14:10:25;;;;;;;3.88;1.90;;;;;;;;;;5089168;28;20031;-73
2023/03/26 14:13:17;;;;;;;4.50;2.10;;;;;;;;;;5084641;28;20040;-72
2023/03/26 14:16:18;;;;;;;3.78;1.95;;;;;;;;;;5086291;28;20051;-71
2023/03/26 14:19:12;;;;;;;3.42;1.92;;;;;;;;;;5085197;28;20020;-70
2023/03/26 14:22:01;;;;;;;3.95;2.38;;;;;;;;;;5085238;28;20028;-71
2023/03/26 14:24:54;;;;;;;2.90;1.77;;;;;;;;;;5075271;28;20305;-70
2023/03/26 14:28:03;;;;;;;2.65;1.70;;;;;;;;;;5085919;28;20052;-72
2023/03/26 14:30:55;;;;;;;3.60;1.95;;;;;;;;;;5082793;28;20071;-73
2023/03/26 14:33:26;;;;;;;4.05;1.67;;;;;;;;;;5084616;28;20100;-72
2023/03/26 14:36:14;;;;;;;2.30;1.60;;;;;;;;;;5083889;28;20036;-73
2023/03/26 14:38:55;;;;;;;3.67;1.60;;;;;;;;;;5079884;28;20036;-72
2023/03/26 14:41:52;;;;;;;3.10;1.90;;;;;;;;;;5084658;28;20031;-72
2023/03/26 14:44:46;;;;;;;3.05;1.90;;;;;;;;;;5079126;28;20051;-74
2023/03/26 14:47:21;;;;;;;3.72;2.13;;;;;;;;;;5104266;28;20040;-72
2023/03/26 14:50:25;;;;;;;4.53;1.90;;;;;;;;;;5084285;28;20502;-72
2023/03/26 14:52:54;;;;;;;3.13;1.90;;;;;;;;;;5082534;28;20063;-72
2023/03/26 14:55:58;;;;;;;5.70;1.80;;;;;;;;;;5088252;28;20048;-73
2023/03/26 14:58:46;;;;;;;3.97;2.10;;;;;;;;;;5088426;28;20106;-72
2023/03/26 15:01:50;;;;;;;3.40;1.92;;;;;;;;;;5081241;28;20032;-72
2023/03/26 15:04:53;;;;;;;3.88;2.10;;;;;;;;;;5066160;28;20077;-73
2023/03/26 15:07:37;;;;;;;5.50;2.05;;;;;;;;;;5087145;28;20036;-72
2023/03/26 15:10:21;;;;;;;3.72;1.98;;;;;;;;;;5085063;28;20032;-74
2023/03/26 15:13:09;;;;;;;6.15;2.13;;;;;;;;;;5085874;28;20082;-72
2023/03/26 15:15:44;;;;;;;6.05;2.17;;;;;;;;;;5083311;28;20448;-73
2023/03/26 15:18:23;;;;;;;4.20;2.30;;;;;;;;;;5084474;28;20042;-72
2023/03/26 15:21:22;;;;;;;6.03;1.90;;;;;;;;;;5086876;28;20046;-72
2023/03/26 15:24:03;;;;;;;4.68;2.15;;;;;;;;;;5086787;28;20067;-73
2023/03/26 15:27:01;;;;;;;5.30;2.22;;;;;;;;;;5085955;28;20040;-73
2023/03/26 15:30:05;;;;;;;2.90;2.13;;;;;;;;;;5087763;28;20093;-72
2023/03/26 15:32:56;;;;;;;7.72;2.30;;;;;;;;;;5048488;28;20093;-72
2023/03/26 15:35:43;;;;;;;3.95;2.00;;;;;;;;;;5082734;28;20039;-71
2023/03/26 15:38:30;;;;;;;2.90;1.90;;;;;;;;;;5078718;28;20108;-73
2023/03/26 15:41:12;;;;;;;3.40;2.15;;;;;;;;;;5088524;28;20099;-72
2023/03/26 15:43:57;;;;;;;5.65;2.80;;;;;;;;;;5084600;28;20513;-72
2023/03/26 15:47:00;;;;;;;8.70;4.40;;;;;;;;;;5083265;28;20043;-72
2023/03/26 15:49:34;;;;;;;5.25;2.60;;;;;;;;;;5089099;28;20055;-73
2023/03/26 15:52:57;;;;;;;4.20;2.50;;;;;;;;;;5090146;28;20028;-73